Informes METAR cercanos

 

LEZL - Sevilla
Actualización: 24/02/2024 04:00
Despejado
Despejado
 Viento del OSO
Viento: OSO 17 km/h
Temperatura: 9°C
Wind Chill: 7°C
Rocío: 7°C
Humedad: 87%
Barómetro: 1018 hPa
Resumen: Despejado
Visibility: greater than 10 km
2024/02/24 03:00 LEZL 240300Z AUTO 25009KT CAVOK 09/07 Q1018
LEMO - Morón, Sevilla
Actualización: 24/02/2024 04:30
Despejado
Despejado
 Viento del OSO
Viento: OSO 15 km/h
Temperatura: 9°C
Wind Chill: 7°C
Rocío: 7°C
Humedad: 87%
Barómetro: 1018 hPa
Resumen: Despejado
Visibility: greater than 10 km
2024/02/24 03:30 LEMO 240330Z 24008KT 210V270 CAVOK 09/07 Q1018 NOSIG
 
LEJR - Jeréz, Cádiz
Actualización: 24/02/2024 04:00
Poco nuboso
Poco nuboso
 Viento del NO
Viento: NO 15 km/h
Temperatura: 11°C
Rocío: 6°C
Humedad: 72%
Barómetro: 1019 hPa
Clouds: Poco nuboso
Visibility: 10 km
Cloud details: Poco nuboso 2042 m
2024/02/24 03:00 LEJR 240300Z AUTO 31008KT 9999 SCT067 11/06 Q1019
LERT - Rota. Cádiz
Actualización: 24/02/2024 04:00
Few Clouds
Few Clouds
 Viento del NO
Viento: NO 17 km/h
Temperatura: 13°C
Rocío: 7°C
Humedad: 67%
Barómetro: 1020 hPa
Clouds: Few Clouds
Visibility: 10 km
Cloud details: Few Clouds 1006 m
2024/02/24 03:00 LERT 240300Z 31009KT 270V340 9999 FEW033 13/07 Q1020 NOSIG
 
LEMG - Málaga
Actualización: 24/02/2024 04:00
Few Clouds
Few Clouds
 Viento del ONO
Viento: ONO 19 km/h
Temperatura: 11°C
Rocío: 5°C
Humedad: 67%
Barómetro: 1016 hPa
Clouds: Few Clouds
Visibility: 10 km
Cloud details: Few Clouds 1524 m
2024/02/24 03:00 LEMG 240300Z 30010KT 9999 FEW050 11/05 Q1016 NOSIG
LEBA - Córdoba
Actualización: 24/02/2024 04:00
Muy nuboso
Muy nuboso
 Viento del OSO
Viento: OSO 19 km/h
Temperatura: 9°C
Wind Chill: 6°C
Rocío: 7°C
Humedad: 87%
Barómetro: 1017 hPa
Clouds: Muy nuboso
Visibility: 10 km
Cloud details: Muy nuboso 1250 m
2024/02/24 03:00 LEBA 240300Z AUTO 25010KT 210V280 9999 BKN041 09/07 Q1017
 
LEGR - Granada
Actualización: 24/02/2024 04:00
Muy nuboso
Muy nuboso
 Viento del ONO
Viento: ONO 19 km/h
Temperatura: 6°C
Wind Chill: 3°C
Rocío: 4°C
Humedad: 87%
Barómetro: 1016 hPa
Clouds: Muy nuboso
Visibility: 10 km
Cloud details: Poco nuboso 1250 m
Muy nuboso 2438 m
Muy nuboso 3353 m
2024/02/24 03:00 LEGR 240300Z AUTO 29010KT 260V320 9999 SCT041 BKN080 BKN110 06/04 Q1016
LEAM - Almería
Actualización: 24/02/2024 04:00
Poco nuboso
Poco nuboso
 Viento del ONO
Viento: ONO 13 km/h
Temperatura: 14°C
Rocío: 2°C
Humedad: 44%
Barómetro: 1012 hPa
Clouds: Poco nuboso
Visibility: 10 km
Cloud details: Poco nuboso 3048 m
2024/02/24 03:00 LEAM 240300Z AUTO 30007KT 250V340 9999 SCT100 14/02 Q1012
 
LEMD - Madrid/Barajas
Actualización: 24/02/2024 04:00
Despejado
Despejado
 Viento del O
Viento: O 11 km/h
Temperatura: 4°C
Wind Chill: 1°C
Rocío: 1°C
Humedad: 81%
Barómetro: 1009 hPa
Resumen: Despejado
Visibility: greater than 10 km
2024/02/24 03:00 LEMD 240300Z 26006KT 230V300 CAVOK 04/01 Q1009 NOSIG
LEBL - Barcelona
Actualización: 24/02/2024 04:00
Few Clouds
Few Clouds
 Viento del ONO
Viento: ONO 9 km/h
Temperatura: 9°C
Wind Chill: 7°C
Rocío: 1°C
Humedad: 58%
Barómetro: 1005 hPa
Clouds: Few Clouds
Visibility: 10 km
Cloud details: Few Clouds 1372 m
2024/02/24 03:00 LEBL 240300Z 30005KT 9999 FEW045 09/01 Q1005 NOSIG